createdAt,value
2018-04-28T00:00:17.705Z,0
2018-04-28T00:00:58.037Z,0
2018-04-28T00:01:38.533Z,0
2018-04-28T00:02:18.991Z,0
2018-04-28T00:02:59.353Z,0
2018-04-28T00:03:39.799Z,0
2018-04-28T00:04:20.305Z,0
2018-04-28T00:05:00.638Z,0
2018-04-28T00:05:41.149Z,0
2018-04-28T00:06:21.654Z,0
2018-04-28T00:07:01.916Z,0
2018-04-28T00:07:42.280Z,0
2018-04-28T00:08:22.676Z,0
2018-04-28T00:09:03.122Z,0
2018-04-28T00:09:43.609Z,0
2018-04-28T00:10:24.001Z,0
2018-04-28T00:11:04.327Z,0
2018-04-28T00:11:44.750Z,0
2018-04-28T00:12:25.245Z,0
2018-04-28T00:13:05.635Z,0
2018-04-28T00:13:46.443Z,0
2018-04-28T00:14:26.659Z,0
2018-04-28T00:15:07.107Z,0
2018-04-28T00:15:47.566Z,0
2018-04-28T00:16:28.001Z,0
2018-04-28T00:17:08.422Z,0
2018-04-28T00:17:49.462Z,0
2018-04-28T00:18:29.852Z,0
2018-04-28T00:19:10.321Z,0
2018-04-28T00:19:50.690Z,0
2018-04-28T00:20:32.731Z,0
2018-04-28T00:21:13.093Z,0
2018-04-28T00:21:53.498Z,0
2018-04-28T00:22:33.940Z,0
2018-04-28T00:23:14.350Z,0
2018-04-28T00:23:54.793Z,0
2018-04-28T00:24:35.205Z,0
2018-04-28T00:25:15.589Z,0
2018-04-28T00:25:56.011Z,0
2018-04-28T00:26:36.536Z,0
2018-04-28T00:27:16.875Z,0
2018-04-28T00:27:57.309Z,0
2018-04-28T00:28:38.908Z,0
2018-04-28T00:29:19.244Z,0
2018-04-28T00:30:00.020Z,0
2018-04-28T00:30:40.269Z,0
2018-04-28T00:31:20.783Z,0
2018-04-28T00:32:01.199Z,0
2018-04-28T00:32:41.574Z,0
2018-04-28T00:33:22.744Z,0
2018-04-28T00:34:03.652Z,0
2018-04-28T00:34:43.955Z,0
2018-04-28T00:35:24.634Z,0
2018-04-28T00:36:05.189Z,0
2018-04-28T00:36:46.367Z,0
2018-04-28T00:37:26.041Z,0
2018-04-28T00:38:06.599Z,0
2018-04-28T00:38:47.156Z,0
2018-04-28T00:39:27.720Z,0
2018-04-28T00:40:08.126Z,0
2018-04-28T00:40:48.471Z,0
2018-04-28T00:41:28.856Z,0
2018-04-28T00:42:09.284Z,0
2018-04-28T00:42:49.730Z,0
2018-04-28T00:43:30.077Z,0
2018-04-28T00:44:10.556Z,0
2018-04-28T00:44:51.662Z,0
2018-04-28T00:45:32.282Z,0
2018-04-28T00:46:12.955Z,0
2018-04-28T00:46:53.372Z,0
2018-04-28T00:47:35.289Z,0
2018-04-28T00:48:15.827Z,0
2018-04-28T00:48:58.699Z,0
2018-04-28T00:49:40.255Z,0
2018-04-28T00:50:22.360Z,0
2018-04-28T00:51:02.930Z,0
2018-04-28T00:51:43.717Z,0
2018-04-28T00:52:24.907Z,0
2018-04-28T00:53:05.246Z,0
2018-04-28T00:53:46.660Z,0
2018-04-28T00:54:26.618Z,0
2018-04-28T00:55:06.985Z,0
2018-04-28T00:55:47.953Z,0
2018-04-28T00:56:28.730Z,0
2018-04-28T00:57:09.643Z,0
2018-04-28T00:57:50.263Z,0
2018-04-28T00:58:30.935Z,0
2018-04-28T00:59:12.494Z,0
2018-04-28T00:59:53.655Z,0
2018-04-28T01:00:34.979Z,0
2018-04-28T01:07:25.267Z,0
2018-04-28T01:08:13.705Z,0
2018-04-28T01:09:01.848Z,0
2018-04-28T01:09:50.615Z,0
2018-04-28T01:10:39.074Z,0
2018-04-28T01:11:28.069Z,0
2018-04-28T01:12:16.636Z,0
2018-04-28T01:13:06.214Z,0
2018-04-28T01:18:09.951Z,0
2018-04-28T01:18:50.226Z,0
2018-04-28T01:19:30.597Z,0
2018-04-28T01:20:11.012Z,0
2018-04-28T01:20:51.350Z,0
2018-04-28T01:21:31.793Z,0
2018-04-28T01:22:14.658Z,0
2018-04-28T01:22:54.016Z,0
2018-04-28T01:23:34.658Z,0
2018-04-28T01:24:15.754Z,0
2018-04-28T01:24:55.920Z,0
2018-04-28T01:25:36.306Z,0
2018-04-28T01:26:16.791Z,0
2018-04-28T01:26:57.715Z,0
2018-04-28T01:27:40.015Z,0
2018-04-28T01:28:22.847Z,0
2018-04-28T01:29:04.502Z,0
2018-04-28T01:29:44.769Z,0
2018-04-28T01:30:27.836Z,0
2018-04-28T01:31:08.805Z,0
2018-04-28T01:31:49.075Z,0
2018-04-28T01:35:33.102Z,0
2018-04-28T01:36:21.070Z,0
2018-04-28T01:38:25.978Z,0
2018-04-28T01:39:13.869Z,0
2018-04-28T01:40:01.875Z,0
2018-04-28T01:40:50.201Z,0
2018-04-28T01:41:39.739Z,0
2018-04-28T01:42:27.448Z,0
2018-04-28T01:43:15.980Z,0
2018-04-28T01:44:04.862Z,0
2018-04-28T01:44:52.811Z,0
2018-04-28T01:47:33.128Z,0
2018-04-28T01:48:21.162Z,0
2018-04-28T01:49:10.123Z,0
2018-04-28T01:49:58.520Z,0
2018-04-28T01:50:46.805Z,0
2018-04-28T01:51:35.391Z,0
2018-04-28T01:52:24.550Z,0
2018-04-28T01:53:13.013Z,0
2018-04-28T01:54:01.172Z,0
2018-04-28T01:54:50.228Z,0
2018-04-28T01:55:39.113Z,0
2018-04-28T01:56:27.743Z,0
2018-04-28T01:57:17.697Z,0
2018-04-28T01:58:05.052Z,0
2018-04-28T01:58:53.937Z,0
2018-04-28T01:59:42.667Z,0
2018-04-28T02:00:31.139Z,0
2018-04-28T02:01:20.098Z,0
2018-04-28T02:02:08.303Z,0
2018-04-28T02:02:58.206Z,0
2018-04-28T02:03:45.677Z,0
2018-04-28T02:04:33.897Z,0
2018-04-28T02:05:26.146Z,0
2018-04-28T02:06:14.214Z,0
2018-04-28T02:07:03.014Z,0
2018-04-28T02:07:52.239Z,0
2018-04-28T02:08:40.754Z,0
2018-04-28T02:09:29.703Z,0
2018-04-28T02:10:19.261Z,0
2018-04-28T02:11:08.229Z,0
2018-04-28T02:11:56.297Z,0
2018-04-28T02:12:46.660Z,0
2018-04-28T02:13:35.113Z,0
2018-04-28T02:14:23.480Z,0
2018-04-28T02:15:11.811Z,0
2018-04-28T02:16:00.660Z,0
2018-04-28T02:16:48.718Z,0
2018-04-28T02:17:37.233Z,0
2018-04-28T02:18:26.110Z,0
2018-04-28T02:19:14.379Z,0
2018-04-28T02:20:02.863Z,0
2018-04-28T02:20:51.395Z,0
2018-04-28T02:21:40.071Z,0
2018-04-28T02:22:29.036Z,0
2018-04-28T02:23:17.734Z,0
2018-04-28T02:25:55.864Z,0
2018-04-28T02:26:44.941Z,0
2018-04-28T02:27:35.363Z,0
2018-04-28T02:28:23.071Z,0
2018-04-28T02:29:02.699Z,0
2018-04-28T02:29:43.650Z,0
2018-04-28T02:30:25.505Z,0
2018-04-28T02:31:05.915Z,0
2018-04-28T02:31:46.335Z,0
2018-04-28T02:32:27.524Z,0
2018-04-28T02:33:08.132Z,0
2018-04-28T02:33:48.511Z,0
2018-04-28T02:34:29.211Z,0
2018-04-28T02:35:09.737Z,0
2018-04-28T02:35:50.941Z,0
2018-04-28T02:36:30.626Z,0
2018-04-28T02:37:11.044Z,0
2018-04-28T02:37:51.547Z,0
2018-04-28T02:38:32.120Z,0
2018-04-28T02:39:12.332Z,0
2018-04-28T02:39:53.958Z,0
2018-04-28T02:40:33.793Z,0
2018-04-28T02:41:14.523Z,0
2018-04-28T02:41:55.538Z,0
2018-04-28T02:42:36.001Z,0
2018-04-28T02:43:16.542Z,0
2018-04-28T02:43:57.191Z,0
2018-04-28T02:44:37.515Z,0
2018-04-28T02:45:18.544Z,0
2018-04-28T02:46:00.020Z,0
2018-04-28T02:46:40.887Z,0
2018-04-28T02:47:21.211Z,0
2018-04-28T02:48:02.801Z,0
2018-04-28T02:48:43.310Z,0
2018-04-28T02:49:23.907Z,0
2018-04-28T02:50:04.346Z,0
2018-04-28T02:50:45.320Z,0
2018-04-28T02:51:26.003Z,0
2018-04-28T02:52:07.240Z,0
2018-04-28T02:52:47.747Z,0
2018-04-28T02:53:29.257Z,0
2018-04-28T02:54:12.733Z,0
2018-04-28T02:56:16.075Z,0
2018-04-28T02:56:56.384Z,0
2018-04-28T02:57:36.839Z,0
2018-04-28T02:58:17.272Z,0
2018-04-28T02:58:57.691Z,0
2018-04-28T02:59:38.089Z,0
2018-04-28T03:00:18.540Z,0
2018-04-28T03:00:58.969Z,0
2018-04-28T03:01:39.456Z,0
2018-04-28T03:02:19.823Z,0
2018-04-28T03:03:00.311Z,0
2018-04-28T03:03:40.689Z,0
2018-04-28T03:04:21.042Z,0
2018-04-28T03:05:01.591Z,0
2018-04-28T03:05:41.921Z,0
2018-04-28T03:06:22.440Z,0
2018-04-28T03:07:02.704Z,0
2018-04-28T03:07:43.113Z,0
2018-04-28T03:08:23.497Z,0
2018-04-28T03:09:04.067Z,0
2018-04-28T03:09:44.408Z,0
2018-04-28T03:10:24.843Z,0
2018-04-28T03:11:05.270Z,0
2018-04-28T03:11:45.880Z,0
2018-04-28T03:12:26.263Z,0
2018-04-28T03:13:06.590Z,0
2018-04-28T03:13:47.066Z,0
2018-04-28T03:14:27.478Z,0
2018-04-28T03:15:08.553Z,0
2018-04-28T03:15:49.269Z,0
2018-04-28T03:16:29.699Z,0
2018-04-28T03:17:10.006Z,0
2018-04-28T03:17:50.605Z,0
2018-04-28T03:18:30.887Z,0
2018-04-28T03:19:11.358Z,0
2018-04-28T03:19:51.796Z,0
2018-04-28T03:20:32.293Z,0
2018-04-28T03:21:12.613Z,0
2018-04-28T03:21:52.985Z,0
2018-04-28T03:22:33.358Z,0
2018-04-28T03:23:14.129Z,0
2018-04-28T03:23:54.670Z,0
2018-04-28T03:24:35.491Z,0
2018-04-28T03:25:16.860Z,0
2018-04-28T03:25:57.051Z,0
2018-04-28T03:26:38.002Z,0
2018-04-28T03:27:18.320Z,0
2018-04-28T03:27:58.882Z,0
2018-04-28T03:28:40.356Z,0
2018-04-28T03:29:22.162Z,0
2018-04-28T03:30:02.510Z,0
2018-04-28T03:30:42.943Z,0
2018-04-28T03:31:23.410Z,0
2018-04-28T03:32:03.861Z,0
2018-04-28T03:32:44.406Z,0
2018-04-28T03:33:25.072Z,0
2018-04-28T03:34:05.310Z,0
2018-04-28T03:34:45.772Z,0
2018-04-28T03:35:26.144Z,0
2018-04-28T03:36:06.993Z,0
2018-04-28T03:36:47.282Z,0
2018-04-28T03:37:29.432Z,0
2018-04-28T03:38:10.023Z,0
2018-04-28T03:38:50.885Z,0
2018-04-28T03:39:31.577Z,0
2018-04-28T03:40:13.523Z,0
2018-04-28T03:40:54.318Z,0
2018-04-28T03:41:35.235Z,0
2018-04-28T03:42:16.009Z,0
2018-04-28T03:42:56.944Z,0
2018-04-28T03:43:37.730Z,0
2018-04-28T03:44:19.001Z,0
2018-04-28T03:44:59.512Z,0
2018-04-28T03:45:40.054Z,0
2018-04-28T03:46:20.351Z,0
2018-04-28T03:47:01.199Z,0
2018-04-28T03:47:42.076Z,4
2018-04-28T03:48:22.493Z,4
2018-04-28T03:49:03.747Z,0
2018-04-28T03:49:44.381Z,0
2018-04-28T03:50:25.247Z,0
2018-04-28T03:51:05.892Z,0
2018-04-28T03:51:46.073Z,0
2018-04-28T03:52:26.604Z,4
2018-04-28T03:53:07.176Z,4
2018-04-28T03:53:47.680Z,0
2018-04-28T03:54:28.073Z,0
2018-04-28T03:55:09.172Z,4
2018-04-28T03:55:49.789Z,4
2018-04-28T03:56:30.463Z,4
2018-04-28T03:57:11.979Z,4
2018-04-28T03:57:52.353Z,4
2018-04-28T03:58:33.226Z,4
2018-04-28T03:59:15.047Z,8
2018-04-28T03:59:55.711Z,4
2018-04-28T04:00:36.337Z,4
2018-04-28T04:01:18.913Z,8
2018-04-28T04:01:59.379Z,4
2018-04-28T04:02:39.915Z,8
2018-04-28T04:03:20.449Z,8
2018-04-28T04:42:46.791Z,280
2018-04-28T04:43:27.074Z,280
2018-04-28T04:44:07.501Z,296
2018-04-28T04:44:47.930Z,292
2018-04-28T04:45:28.438Z,284
2018-04-28T04:46:08.863Z,292
2018-04-28T04:46:49.270Z,308
2018-04-28T04:47:29.728Z,336
2018-04-28T04:48:10.124Z,368
2018-04-28T04:48:50.585Z,380
2018-04-28T04:49:31.053Z,380
2018-04-28T04:50:11.495Z,408
2018-04-28T04:50:51.902Z,436
2018-04-28T04:54:29.012Z,448
2018-04-28T04:55:09.608Z,460
2018-04-28T04:55:50.324Z,496
2018-04-28T04:58:23.100Z,636
2018-04-28T04:59:03.656Z,672
2018-04-28T04:59:44.202Z,676
2018-04-28T05:00:24.617Z,688
2018-04-28T05:01:04.984Z,716
2018-04-28T05:01:45.384Z,764
2018-04-28T05:04:03.007Z,900
2018-04-28T05:04:43.464Z,924
2018-04-28T05:05:23.811Z,972
2018-04-28T05:06:04.228Z,1024
2018-04-28T05:06:44.645Z,1056
2018-04-28T05:07:25.097Z,1068
2018-04-28T05:08:05.543Z,1104
2018-04-28T05:08:47.780Z,1120
2018-04-28T05:09:28.481Z,1132
2018-04-28T05:10:08.839Z,1160
2018-04-28T05:10:49.212Z,1164
2018-04-28T05:11:29.669Z,1144
2018-04-28T05:12:10.159Z,1124
2018-04-28T05:12:50.537Z,1116
2018-04-28T05:13:30.923Z,1156
2018-04-28T05:14:11.415Z,1240
2018-04-28T05:14:52.045Z,1268
2018-04-28T05:15:32.466Z,1228
2018-04-28T05:16:12.911Z,1136
2018-04-28T05:16:53.354Z,1068
2018-04-28T05:17:34.635Z,1076
2018-04-28T05:18:14.775Z,1116
2018-04-28T05:18:55.222Z,1132
2018-04-28T05:22:27.987Z,1116
2018-04-28T05:23:08.370Z,1136
2018-04-28T05:23:48.995Z,1164
2018-04-28T05:24:29.304Z,1164
2018-04-28T05:25:09.743Z,1216
2018-04-28T05:25:50.025Z,1280
2018-04-28T05:26:30.462Z,1352
2018-04-28T05:27:10.919Z,1388
2018-04-28T05:27:51.330Z,1388
2018-04-28T05:28:31.787Z,1384
2018-04-28T05:29:12.300Z,1420
2018-04-28T05:29:53.164Z,1456
2018-04-28T05:30:33.983Z,1444
2018-04-28T05:31:14.162Z,1432
2018-04-28T05:31:54.542Z,1468
2018-04-28T05:32:35.366Z,1476
2018-04-28T05:33:15.824Z,1444
2018-04-28T05:33:56.519Z,1528
2018-04-28T05:34:37.597Z,1656
2018-04-28T05:35:17.738Z,1748
2018-04-28T05:35:58.192Z,1804
2018-04-28T05:36:39.109Z,1904
2018-04-28T05:37:19.997Z,2020
2018-04-28T05:38:00.391Z,2096
2018-04-28T05:38:40.849Z,2148
2018-04-28T05:39:21.846Z,2116
2018-04-28T05:40:02.159Z,2128
2018-04-28T05:40:42.596Z,2164
2018-04-28T05:41:22.900Z,2172
2018-04-28T05:42:03.403Z,2156
2018-04-28T05:42:43.740Z,2136
2018-04-28T05:43:24.232Z,2084
2018-04-28T05:44:04.554Z,2004
2018-04-28T05:44:45.145Z,1944
2018-04-28T05:45:25.569Z,1880
2018-04-28T05:46:06.028Z,1828
2018-04-28T05:46:46.371Z,1892
2018-04-28T05:47:26.721Z,2004
2018-04-28T05:48:07.194Z,2028
2018-04-28T05:48:48.231Z,1996
2018-04-28T05:49:28.561Z,1924
2018-04-28T05:50:09.219Z,1916
2018-04-28T05:50:49.640Z,1948
2018-04-28T05:51:30.094Z,1904
2018-04-28T05:52:11.389Z,1932
2018-04-28T05:52:51.890Z,2016
2018-04-28T05:53:32.463Z,1832
2018-04-28T05:54:12.848Z,1776
2018-04-28T05:54:53.330Z,1812
2018-04-28T05:55:33.782Z,1864
2018-04-28T05:56:14.193Z,1900
2018-04-28T05:56:54.650Z,1988
2018-04-28T06:00:31.823Z,2204
2018-04-28T06:01:12.217Z,2092
2018-04-28T06:01:52.642Z,2048
2018-04-28T06:02:33.059Z,2044
2018-04-28T06:03:13.888Z,2136
2018-04-28T06:03:54.440Z,2456
2018-04-28T06:04:34.709Z,2452
2018-04-28T06:05:15.149Z,2196
2018-04-28T06:05:55.479Z,2272
2018-04-28T06:06:36.615Z,2380
2018-04-28T06:07:17.017Z,3360
2018-04-28T06:07:57.471Z,3580
2018-04-28T06:08:38.203Z,3336
2018-04-28T06:09:18.718Z,2832
2018-04-28T06:09:59.305Z,2076
2018-04-28T06:10:39.645Z,1892
2018-04-28T06:11:20.406Z,1760
2018-04-28T06:12:00.927Z,1692
2018-04-28T06:12:41.291Z,1696
2018-04-28T06:13:21.719Z,1680
2018-04-28T06:14:02.072Z,1608
2018-04-28T06:14:42.676Z,1528
2018-04-28T06:15:23.191Z,1452
2018-04-28T06:16:03.645Z,1404
2018-04-28T06:16:44.123Z,1372
2018-04-28T06:17:24.555Z,1340
2018-04-28T06:18:05.006Z,1344
2018-04-28T06:18:45.612Z,1380
2018-04-28T06:19:25.948Z,1436
2018-04-28T06:20:06.575Z,1476
2018-04-28T06:20:46.860Z,1544
2018-04-28T06:21:27.549Z,1488
2018-04-28T06:22:07.907Z,1508
2018-04-28T06:22:48.342Z,1568
2018-04-28T06:23:28.755Z,1628
2018-04-28T06:24:09.123Z,1668
2018-04-28T06:24:49.642Z,1696
2018-04-28T06:25:30.052Z,1732
2018-04-28T06:26:10.599Z,1708
2018-04-28T06:26:51.015Z,1660
2018-04-28T06:27:31.483Z,1624
2018-04-28T06:28:11.922Z,1568
2018-04-28T06:28:52.508Z,1500
2018-04-28T06:29:33.122Z,1452
2018-04-28T06:30:13.541Z,1404
2018-04-28T06:30:55.183Z,1356
2018-04-28T06:31:35.580Z,1336
2018-04-28T06:32:16.056Z,1320
2018-04-28T06:32:56.473Z,1300
2018-04-28T06:33:37.002Z,1252
2018-04-28T06:34:17.758Z,1316
2018-04-28T06:34:58.009Z,1412
2018-04-28T06:35:38.686Z,1480
2018-04-28T06:36:19.137Z,1452
2018-04-28T06:36:59.567Z,1424
2018-04-28T06:37:40.435Z,1272
2018-04-28T06:38:20.802Z,1204
2018-04-28T06:39:03.266Z,1140
2018-04-28T06:39:43.629Z,1136
2018-04-28T06:40:24.041Z,1108
2018-04-28T06:41:04.584Z,1088
2018-04-28T06:41:45.006Z,1112
2018-04-28T06:42:25.700Z,1052
2018-04-28T06:43:06.195Z,1000
2018-04-28T06:43:46.586Z,988
2018-04-28T06:44:27.081Z,976
2018-04-28T06:45:07.936Z,976
2018-04-28T06:45:48.307Z,960
2018-04-28T06:46:28.722Z,948
2018-04-28T06:47:09.098Z,928
2018-04-28T06:47:49.811Z,944
2018-04-28T06:48:30.306Z,952
2018-04-28T06:49:10.821Z,948
2018-04-28T06:49:51.264Z,952
2018-04-28T06:50:31.878Z,944
2018-04-28T06:51:12.603Z,920
2018-04-28T06:51:53.051Z,888
2018-04-28T06:52:33.447Z,856
2018-04-28T06:53:13.896Z,852
2018-04-28T06:53:54.343Z,864
2018-04-28T06:54:35.002Z,892
2018-04-28T06:55:15.288Z,908
2018-04-28T06:55:55.723Z,952
2018-04-28T06:59:33.173Z,1196
2018-04-28T07:00:13.667Z,1292
2018-04-28T07:00:54.107Z,1364
2018-04-28T07:01:34.434Z,1428
2018-04-28T07:02:14.872Z,1524
2018-04-28T07:02:55.255Z,1592
2018-04-28T07:03:35.686Z,1700
2018-04-28T07:04:16.112Z,1760
2018-04-28T07:04:56.523Z,1908
2018-04-28T07:05:36.992Z,1984
2018-04-28T07:06:17.457Z,2140
2018-04-28T07:06:57.930Z,2208
2018-04-28T07:07:39.165Z,2244
2018-04-28T07:08:20.676Z,2352
2018-04-28T07:09:01.048Z,2360
2018-04-28T07:09:41.439Z,2296
2018-04-28T07:10:21.847Z,2296
2018-04-28T07:11:02.409Z,2392
2018-04-28T07:11:42.677Z,2296
2018-04-28T07:12:23.214Z,2216
2018-04-28T07:13:03.630Z,2024
2018-04-28T07:15:40.658Z,1588
2018-04-28T07:16:29.635Z,1572
2018-04-28T07:17:13.595Z,1588
2018-04-28T07:17:54.079Z,1636
2018-04-28T07:18:34.993Z,1708
2018-04-28T07:21:05.420Z,1788
2018-04-28T07:21:45.751Z,1768
2018-04-28T07:22:26.197Z,1728
2018-04-28T07:23:06.653Z,1720
2018-04-28T07:23:47.088Z,1708
2018-04-28T07:24:27.618Z,1708
2018-04-28T07:25:08.083Z,1688
2018-04-28T07:25:48.480Z,1620
2018-04-28T07:26:29.084Z,1712
2018-04-28T07:27:09.497Z,1776
2018-04-28T07:27:49.866Z,1860
2018-04-28T07:30:08.848Z,2128
2018-04-28T07:30:50.142Z,2132
2018-04-28T07:31:31.363Z,2180
2018-04-28T07:32:11.219Z,2184
2018-04-28T07:32:51.598Z,2168
2018-04-28T07:33:32.082Z,2116
2018-04-28T07:34:12.618Z,2240
2018-04-28T07:34:55.731Z,2328
2018-04-28T07:35:38.457Z,2372
2018-04-28T07:36:19.110Z,2348
2018-04-28T07:37:00.606Z,2492
2018-04-28T07:37:41.454Z,2796
2018-04-28T07:38:21.630Z,2800
2018-04-28T07:39:02.299Z,2700
2018-04-28T07:39:44.779Z,2544
2018-04-28T07:40:24.923Z,2436
2018-04-28T07:41:05.464Z,2412
2018-04-28T07:41:45.900Z,2356
2018-04-28T07:42:27.110Z,2296
2018-04-28T07:43:07.639Z,2224
2018-04-28T07:43:48.184Z,2160
2018-04-28T07:44:29.354Z,2124
2018-04-28T07:48:38.051Z,1904
2018-04-28T07:49:21.029Z,1884
2018-04-28T07:50:02.044Z,1880
2018-04-28T07:50:44.677Z,1904
2018-04-28T07:51:26.200Z,1904
2018-04-28T07:52:08.822Z,1900
2018-04-28T07:52:49.718Z,1888
2018-04-28T07:53:32.154Z,1856
2018-04-28T07:54:15.349Z,1812
2018-04-28T07:54:58.834Z,1780
2018-04-28T07:55:39.189Z,1768
2018-04-28T07:56:22.251Z,1712
2018-04-28T07:57:02.661Z,1688
2018-04-28T08:01:13.149Z,1832
2018-04-28T08:01:53.542Z,1904
2018-04-28T08:02:33.954Z,1956
2018-04-28T08:03:14.388Z,2004
2018-04-28T08:03:54.790Z,2116
2018-04-28T08:04:35.224Z,2208
2018-04-28T08:05:15.630Z,2344
2018-04-28T08:05:55.996Z,2584
2018-04-28T08:06:36.402Z,2828
2018-04-28T08:07:16.827Z,3060
2018-04-28T08:07:57.244Z,3216
2018-04-28T08:08:37.656Z,3332
2018-04-28T08:09:18.169Z,3356
2018-04-28T08:09:58.572Z,3384
2018-04-28T08:15:23.146Z,3164
2018-04-28T08:16:03.517Z,3188
2018-04-28T08:16:43.971Z,3184
2018-04-28T08:17:24.381Z,3180
2018-04-28T08:18:04.835Z,3164
2018-04-28T08:18:45.188Z,3244
2018-04-28T08:19:25.603Z,3356
2018-04-28T08:20:06.080Z,3484
2018-04-28T08:20:46.536Z,3620
2018-04-28T08:21:26.834Z,3740
2018-04-28T08:22:07.299Z,3932
2018-04-28T08:22:47.833Z,4296
2018-04-28T08:23:28.195Z,4472
2018-04-28T08:24:08.632Z,4588
2018-04-28T08:24:49.093Z,4676
2018-04-28T08:25:29.518Z,4724
2018-04-28T08:26:09.946Z,4692
2018-04-28T08:26:50.354Z,4708
2018-04-28T08:27:30.806Z,4624
2018-04-28T08:28:11.324Z,4632
2018-04-28T08:28:51.705Z,4616
2018-04-28T08:29:32.111Z,4588
2018-04-28T08:30:12.520Z,4552
2018-04-28T08:30:53.008Z,4608
2018-04-28T08:31:33.479Z,4564
2018-04-28T08:32:13.865Z,4568
2018-04-28T08:32:54.268Z,4572
2018-04-28T08:33:34.695Z,4488
2018-04-28T08:34:15.119Z,4404
2018-04-28T08:34:55.588Z,4356
2018-04-28T08:35:36.045Z,4352
2018-04-28T08:36:16.459Z,4440
2018-04-28T08:38:44.542Z,4240
2018-04-28T08:39:25.304Z,3896
2018-04-28T08:40:08.594Z,3736
2018-04-28T08:40:48.493Z,3596
2018-04-28T08:41:29.780Z,3416
2018-04-28T08:42:10.301Z,3548
2018-04-28T08:42:51.774Z,3728
2018-04-28T08:43:36.322Z,3532
2018-04-28T08:44:17.189Z,3720
2018-04-28T08:44:58.903Z,3784
2018-04-28T08:45:39.752Z,3756
2018-04-28T08:46:22.700Z,3752
2018-04-28T08:47:05.041Z,3800
2018-04-28T08:47:45.116Z,3768
2018-04-28T08:48:28.160Z,3648
2018-04-28T08:49:11.319Z,3756
2018-04-28T08:51:39.883Z,3928
2018-04-28T08:52:35.294Z,3912
2018-04-28T08:53:15.749Z,4472
2018-04-28T08:57:18.484Z,4204
2018-04-28T08:58:05.505Z,4428
2018-04-28T08:58:48.445Z,4240
2018-04-28T08:59:35.807Z,3976
2018-04-28T09:00:19.174Z,3952
2018-04-28T09:02:17.063Z,4116
2018-04-28T09:03:04.515Z,3872
2018-04-28T09:04:14.808Z,3844
2018-04-28T09:04:55.259Z,3828
2018-04-28T09:05:53.304Z,3912
2018-04-28T09:13:05.984Z,4088
2018-04-28T09:13:46.378Z,3884
2018-04-28T09:14:26.774Z,3692
2018-04-28T09:15:07.609Z,3740
2018-04-28T09:15:48.179Z,3852
2018-04-28T09:16:28.846Z,3624
2018-04-28T09:17:09.608Z,3816
2018-04-28T09:17:50.147Z,3600
2018-04-28T09:18:31.180Z,3996
2018-04-28T09:19:11.971Z,4120
2018-04-28T09:19:52.915Z,3896
2018-04-28T09:20:33.178Z,3924
2018-04-28T09:21:14.127Z,3288
2018-04-28T09:21:54.830Z,2912
2018-04-28T09:22:37.483Z,3188
2018-04-28T09:23:17.860Z,2984
2018-04-28T09:23:58.095Z,2876
2018-04-28T09:24:38.480Z,2868
2018-04-28T09:26:56.420Z,2768
2018-04-28T09:27:36.884Z,2724
2018-04-28T09:28:41.231Z,2660
2018-04-28T09:29:24.605Z,2648
2018-04-28T09:30:07.942Z,2700
2018-04-28T09:30:48.349Z,2732
2018-04-28T09:31:28.733Z,2760
2018-04-28T09:32:09.195Z,2852
2018-04-28T09:32:49.660Z,2952
2018-04-28T09:33:30.067Z,3016
2018-04-28T09:34:10.478Z,2616
2018-04-28T09:34:57.723Z,2424
2018-04-28T09:35:53.155Z,2528
2018-04-28T09:36:48.153Z,2948
2018-04-28T09:37:28.545Z,3056
2018-04-28T09:38:51.967Z,3220
2018-04-28T09:39:32.385Z,3248
2018-04-28T09:40:12.766Z,3224
2018-04-28T09:40:55.733Z,3248
2018-04-28T09:41:36.134Z,2540
2018-04-28T09:43:51.708Z,2532
2018-04-28T09:44:32.154Z,2452
2018-04-28T09:45:12.535Z,2500
2018-04-28T09:45:59.846Z,2436
2018-04-28T09:46:40.211Z,2348
2018-04-28T09:47:20.658Z,2316
2018-04-28T09:48:07.808Z,2312
2018-04-28T09:48:48.196Z,2456
2018-04-28T09:49:28.636Z,2512
2018-04-28T09:50:11.906Z,2688
2018-04-28T09:51:07.342Z,2616
2018-04-28T09:51:47.763Z,2544
2018-04-28T09:52:28.112Z,2440
2018-04-28T09:53:08.602Z,2480
2018-04-28T09:53:48.990Z,2532
2018-04-28T09:54:44.069Z,2200
2018-04-28T09:55:24.504Z,1968
2018-04-28T09:56:26.805Z,1808
2018-04-28T09:57:10.933Z,1816
2018-04-28T09:59:09.932Z,2000
2018-04-28T09:59:51.300Z,2104
2018-04-28T10:00:32.725Z,2300
2018-04-28T10:01:15.560Z,2500
2018-04-28T10:01:56.590Z,2364
2018-04-28T10:02:39.477Z,2152
2018-04-28T10:03:20.059Z,2096
2018-04-28T10:04:04.063Z,2244
2018-04-28T10:04:45.100Z,2428
2018-04-28T10:51:37.139Z,2520
2018-04-28T10:52:17.039Z,2304
2018-04-28T10:52:58.076Z,2164
2018-04-28T10:53:38.646Z,2132
2018-04-28T10:54:18.947Z,2332
2018-04-28T10:54:59.406Z,2472
2018-04-28T10:55:39.991Z,2480
2018-04-28T10:56:20.483Z,2424
2018-04-28T10:57:00.767Z,2384
2018-04-28T10:57:41.421Z,2348
2018-04-28T10:58:22.420Z,2296
2018-04-28T10:59:02.848Z,2276
2018-04-28T10:59:43.606Z,2336
2018-04-28T11:00:24.171Z,2392
2018-04-28T11:01:04.613Z,2416
2018-04-28T11:01:45.123Z,2376
2018-04-28T11:02:25.728Z,2348
2018-04-28T11:03:06.709Z,2376
2018-04-28T11:03:47.138Z,2336
2018-04-28T11:04:27.541Z,2216
2018-04-28T11:05:08.009Z,2156
2018-04-28T11:05:48.590Z,2116
2018-04-28T11:06:28.933Z,2084
2018-04-28T11:07:09.858Z,2096
2018-04-28T11:07:50.041Z,2100
2018-04-28T11:08:30.546Z,2084
2018-04-28T11:09:11.422Z,2112
2018-04-28T11:09:51.747Z,2212
2018-04-28T11:10:32.426Z,2328
2018-04-28T11:11:12.889Z,2348
2018-04-28T11:11:53.281Z,2272
2018-04-28T11:12:33.774Z,2276
2018-04-28T11:13:14.063Z,2280
2018-04-28T11:13:54.720Z,2264
2018-04-28T11:14:35.075Z,2332
2018-04-28T11:15:15.447Z,2408
2018-04-28T11:15:55.873Z,2416
2018-04-28T11:16:36.376Z,2364
2018-04-28T11:17:16.990Z,2424
2018-04-28T11:17:57.473Z,2960
2018-04-28T11:18:37.807Z,2708
2018-04-28T11:19:18.286Z,2448
2018-04-28T11:19:58.882Z,2560
2018-04-28T11:20:39.322Z,2596
2018-04-28T11:21:19.809Z,2448
2018-04-28T11:22:00.432Z,2392
2018-04-28T11:22:40.892Z,2204
2018-04-28T11:23:21.411Z,2048
2018-04-28T11:24:01.854Z,1892
2018-04-28T11:24:42.305Z,1872
2018-04-28T11:25:23.048Z,1784
2018-04-28T11:26:03.335Z,1696
2018-04-28T11:26:43.840Z,1684
2018-04-28T11:27:24.279Z,1736
2018-04-28T11:28:04.694Z,1780
2018-04-28T11:28:45.251Z,1812
2018-04-28T11:29:26.092Z,1852
2018-04-28T11:36:25.161Z,2160
2018-04-28T11:38:36.711Z,2196
2018-04-28T11:39:16.972Z,2148
2018-04-28T11:39:57.447Z,2224
2018-04-28T11:40:37.921Z,2348
2018-04-28T11:41:21.514Z,2488
2018-04-28T11:42:01.904Z,2732
2018-04-28T11:42:42.431Z,2684
2018-04-28T11:43:22.801Z,2272
2018-04-28T11:45:25.152Z,2248
2018-04-28T11:46:05.474Z,2320
2018-04-28T11:46:45.979Z,2456
2018-04-28T11:47:26.332Z,2344
2018-04-28T11:48:06.826Z,2720
2018-04-28T11:48:47.323Z,2156
2018-04-28T11:49:27.897Z,2136
2018-04-28T11:50:09.346Z,2204
2018-04-28T11:50:48.958Z,2576
2018-04-28T11:51:29.505Z,2820
2018-04-28T11:52:09.990Z,2336
2018-04-28T11:52:50.452Z,2272
2018-04-28T11:53:30.786Z,2328
2018-04-28T11:54:11.411Z,2368
2018-04-28T11:54:51.866Z,2300
2018-04-28T11:55:32.272Z,2284
2018-04-28T11:56:12.703Z,2092
2018-04-28T11:56:53.167Z,1972
2018-04-28T11:57:33.586Z,1916
2018-04-28T11:58:14.204Z,1868
2018-04-28T11:58:54.597Z,1796
2018-04-28T11:59:35.004Z,1772
2018-04-28T12:00:15.399Z,1788
2018-04-28T12:00:55.849Z,1840
2018-04-28T12:01:36.247Z,1932
2018-04-28T12:02:16.692Z,2092
2018-04-28T12:02:57.511Z,2120
2018-04-28T12:03:37.865Z,2092
2018-04-28T12:04:19.019Z,2156
2018-04-28T12:04:59.827Z,2200
2018-04-28T12:05:41.427Z,2156
2018-04-28T12:06:23.152Z,2060
2018-04-28T12:07:04.418Z,1984
2018-04-28T12:07:45.811Z,1920
2018-04-28T12:08:28.594Z,1904
2018-04-28T12:09:09.714Z,2080
2018-04-28T12:09:50.720Z,1944
2018-04-28T12:10:32.818Z,1864
2018-04-28T12:11:14.029Z,1772
2018-04-28T12:11:54.120Z,1720
2018-04-28T12:12:37.415Z,1720
2018-04-28T12:13:17.596Z,1720
2018-04-28T12:13:58.795Z,1744
2018-04-28T12:14:39.919Z,1840
2018-04-28T12:15:20.832Z,2004
2018-04-28T12:16:01.965Z,2044
2018-04-28T12:16:42.390Z,2040
2018-04-28T12:17:22.822Z,2056
2018-04-28T12:18:03.242Z,2084
2018-04-28T12:18:43.651Z,2016
2018-04-28T12:19:24.089Z,1916
2018-04-28T12:20:04.493Z,1808
2018-04-28T12:20:44.924Z,1748
2018-04-28T12:21:25.351Z,1720
2018-04-28T12:22:05.872Z,1740
2018-04-28T12:22:46.755Z,1760